sensor_id;sensor_type;location;lat;lon;timestamp;P1;durP1;ratioP1;P2;durP2;ratioP2
47796;SDS011;33558;50.922;14.068;2023-09-12T11:47:54;13.13;;;4.90;;
47796;SDS011;33558;50.922;14.068;2023-09-12T11:51:12;9.57;;;5.25;;
47796;SDS011;33558;50.922;14.068;2023-09-12T12:26:49;11.25;;;5.80;;
47796;SDS011;33558;50.922;14.068;2023-09-12T12:29:16;11.55;;;5.22;;
47796;SDS011;33558;50.922;14.068;2023-09-12T12:31:43;8.88;;;4.90;;
47796;SDS011;33558;50.922;14.068;2023-09-12T12:34:09;11.93;;;5.00;;
47796;SDS011;33558;50.922;14.068;2023-09-12T12:36:40;13.65;;;5.10;;
47796;SDS011;33558;50.922;14.068;2023-09-12T12:39:07;11.10;;;5.13;;
47796;SDS011;33558;50.922;14.068;2023-09-12T12:41:36;7.70;;;4.60;;
47796;SDS011;33558;50.922;14.068;2023-09-12T12:44:05;9.90;;;5.32;;
47796;SDS011;33558;50.922;14.068;2023-09-12T12:46:32;11.68;;;4.50;;
47796;SDS011;33558;50.922;14.068;2023-09-12T12:48:58;11.27;;;4.50;;
47796;SDS011;33558;50.922;14.068;2023-09-12T12:51:25;11.30;;;4.88;;
47796;SDS011;33558;50.922;14.068;2023-09-12T12:53:55;7.95;;;4.30;;
47796;SDS011;33558;50.922;14.068;2023-09-12T12:56:29;10.30;;;4.78;;
47796;SDS011;33558;50.922;14.068;2023-09-12T12:58:56;5.88;;;3.90;;
47796;SDS011;33558;50.922;14.068;2023-09-12T13:01:27;7.50;;;4.70;;
47796;SDS011;33558;50.922;14.068;2023-09-12T13:03:53;7.93;;;3.97;;
47796;SDS011;33558;50.922;14.068;2023-09-12T13:06:21;8.65;;;4.28;;
47796;SDS011;33558;50.922;14.068;2023-09-12T13:08:51;7.20;;;4.30;;
47796;SDS011;33558;50.922;14.068;2023-09-12T13:11:18;9.77;;;4.60;;
47796;SDS011;33558;50.922;14.068;2023-09-12T13:13:44;7.40;;;4.50;;
47796;SDS011;33558;50.922;14.068;2023-09-12T13:16:12;5.78;;;3.85;;
47796;SDS011;33558;50.922;14.068;2023-09-12T13:18:40;8.32;;;3.83;;
47796;SDS011;33558;50.922;14.068;2023-09-12T13:21:07;10.70;;;4.30;;
47796;SDS011;33558;50.922;14.068;2023-09-12T13:23:35;10.15;;;4.90;;
47796;SDS011;33558;50.922;14.068;2023-09-12T13:26:03;7.90;;;4.07;;
47796;SDS011;33558;50.922;14.068;2023-09-12T13:28:30;10.35;;;4.10;;
47796;SDS011;33558;50.922;14.068;2023-09-12T13:30:57;7.65;;;4.53;;
47796;SDS011;33558;50.922;14.068;2023-09-12T13:33:24;7.32;;;4.18;;
47796;SDS011;33558;50.922;14.068;2023-09-12T13:35:52;12.27;;;4.20;;
47796;SDS011;33558;50.922;14.068;2023-09-12T13:38:19;7.00;;;4.07;;
47796;SDS011;33558;50.922;14.068;2023-09-12T13:40:46;10.05;;;4.30;;
47796;SDS011;33558;50.922;14.068;2023-09-12T13:43:13;6.75;;;4.05;;
47796;SDS011;33558;50.922;14.068;2023-09-12T13:45:40;8.20;;;4.30;;
47796;SDS011;33558;50.922;14.068;2023-09-12T13:48:07;9.65;;;3.78;;
47796;SDS011;33558;50.922;14.068;2023-09-12T13:50:34;5.32;;;3.97;;
47796;SDS011;33558;50.922;14.068;2023-09-12T13:53:02;9.27;;;4.03;;
47796;SDS011;33558;50.922;14.068;2023-09-12T13:55:32;9.02;;;4.10;;
47796;SDS011;33558;50.922;14.068;2023-09-12T13:58:00;5.80;;;3.60;;
47796;SDS011;33558;50.922;14.068;2023-09-12T14:00:28;7.70;;;4.60;;
47796;SDS011;33558;50.922;14.068;2023-09-12T14:02:54;8.02;;;4.07;;
47796;SDS011;33558;50.922;14.068;2023-09-12T14:05:21;7.53;;;4.20;;
47796;SDS011;33558;50.922;14.068;2023-09-12T14:07:48;7.93;;;4.32;;
47796;SDS011;33558;50.922;14.068;2023-09-12T14:10:16;10.15;;;4.32;;
47796;SDS011;33558;50.922;14.068;2023-09-12T14:12:43;6.38;;;3.80;;
47796;SDS011;33558;50.922;14.068;2023-09-12T14:15:11;9.90;;;4.53;;
47796;SDS011;33558;50.922;14.068;2023-09-12T14:17:39;8.82;;;4.35;;
47796;SDS011;33558;50.922;14.068;2023-09-12T14:20:06;9.25;;;4.25;;
47796;SDS011;33558;50.922;14.068;2023-09-12T14:22:34;8.43;;;4.38;;
47796;SDS011;33558;50.922;14.068;2023-09-12T14:25:01;7.10;;;3.63;;
47796;SDS011;33558;50.922;14.068;2023-09-12T14:27:29;6.45;;;4.35;;
47796;SDS011;33558;50.922;14.068;2023-09-12T14:29:55;6.82;;;4.07;;
47796;SDS011;33558;50.922;14.068;2023-09-12T14:32:24;6.90;;;4.07;;
47796;SDS011;33558;50.922;14.068;2023-09-12T14:34:51;8.68;;;3.97;;
47796;SDS011;33558;50.922;14.068;2023-09-12T14:37:17;8.85;;;4.68;;
47796;SDS011;33558;50.922;14.068;2023-09-12T14:39:44;10.75;;;3.97;;
47796;SDS011;33558;50.922;14.068;2023-09-12T14:42:11;6.60;;;3.88;;
47796;SDS011;33558;50.922;14.068;2023-09-12T14:44:39;9.73;;;4.25;;
47796;SDS011;33558;50.922;14.068;2023-09-12T14:47:06;8.27;;;4.18;;
47796;SDS011;33558;50.922;14.068;2023-09-12T14:49:32;7.95;;;4.07;;
47796;SDS011;33558;50.922;14.068;2023-09-12T14:51:59;7.65;;;4.13;;
47796;SDS011;33558;50.922;14.068;2023-09-12T14:54:26;10.10;;;4.53;;
47796;SDS011;33558;50.922;14.068;2023-09-12T14:56:53;8.48;;;4.13;;
47796;SDS011;33558;50.922;14.068;2023-09-12T14:59:19;8.82;;;4.20;;
47796;SDS011;33558;50.922;14.068;2023-09-12T15:01:48;9.40;;;3.88;;
47796;SDS011;33558;50.922;14.068;2023-09-12T15:04:14;7.38;;;4.70;;
47796;SDS011;33558;50.922;14.068;2023-09-12T15:06:41;6.05;;;4.13;;
47796;SDS011;33558;50.922;14.068;2023-09-12T15:09:08;7.03;;;4.05;;
47796;SDS011;33558;50.922;14.068;2023-09-12T15:11:35;9.65;;;4.13;;
47796;SDS011;33558;50.922;14.068;2023-09-12T15:14:01;6.97;;;4.07;;
47796;SDS011;33558;50.922;14.068;2023-09-12T15:16:28;7.78;;;4.40;;
47796;SDS011;33558;50.922;14.068;2023-09-12T15:19:00;10.70;;;4.63;;
47796;SDS011;33558;50.922;14.068;2023-09-12T15:21:28;10.65;;;4.53;;
47796;SDS011;33558;50.922;14.068;2023-09-12T15:23:54;7.47;;;4.45;;
47796;SDS011;33558;50.922;14.068;2023-09-12T15:26:21;11.27;;;4.88;;
47796;SDS011;33558;50.922;14.068;2023-09-12T15:28:48;10.20;;;4.60;;
47796;SDS011;33558;50.922;14.068;2023-09-12T15:31:15;7.85;;;4.22;;
47796;SDS011;33558;50.922;14.068;2023-09-12T15:33:41;8.88;;;4.22;;
47796;SDS011;33558;50.922;14.068;2023-09-12T15:36:09;7.13;;;4.20;;
47796;SDS011;33558;50.922;14.068;2023-09-12T15:38:36;8.80;;;3.72;;
47796;SDS011;33558;50.922;14.068;2023-09-12T15:41:03;7.72;;;4.78;;
47796;SDS011;33558;50.922;14.068;2023-09-12T15:43:33;5.88;;;3.95;;
47796;SDS011;33558;50.922;14.068;2023-09-12T15:46:00;8.63;;;4.88;;
47796;SDS011;33558;50.922;14.068;2023-09-12T15:48:27;10.25;;;4.32;;
47796;SDS011;33558;50.922;14.068;2023-09-12T15:50:54;10.02;;;4.60;;
47796;SDS011;33558;50.922;14.068;2023-09-12T15:53:22;9.70;;;5.10;;
47796;SDS011;33558;50.922;14.068;2023-09-12T15:55:49;9.93;;;4.47;;
47796;SDS011;33558;50.922;14.068;2023-09-12T15:58:17;10.18;;;4.78;;
47796;SDS011;33558;50.922;14.068;2023-09-12T16:00:44;7.97;;;4.63;;
47796;SDS011;33558;50.922;14.068;2023-09-12T16:03:10;7.60;;;4.55;;
47796;SDS011;33558;50.922;14.068;2023-09-12T16:05:37;10.25;;;4.50;;
47796;SDS011;33558;50.922;14.068;2023-09-12T16:08:04;8.25;;;4.45;;
47796;SDS011;33558;50.922;14.068;2023-09-12T16:10:32;7.15;;;4.53;;
47796;SDS011;33558;50.922;14.068;2023-09-12T16:12:59;11.52;;;5.07;;
47796;SDS011;33558;50.922;14.068;2023-09-12T16:15:26;10.82;;;5.70;;
47796;SDS011;33558;50.922;14.068;2023-09-12T16:17:52;8.02;;;5.10;;
47796;SDS011;33558;50.922;14.068;2023-09-12T16:20:19;7.80;;;5.60;;
47796;SDS011;33558;50.922;14.068;2023-09-12T16:22:46;10.75;;;5.38;;
47796;SDS011;33558;50.922;14.068;2023-09-12T16:25:12;10.15;;;5.07;;
47796;SDS011;33558;50.922;14.068;2023-09-12T16:27:41;8.25;;;4.32;;
47796;SDS011;33558;50.922;14.068;2023-09-12T16:30:08;11.82;;;5.32;;
47796;SDS011;33558;50.922;14.068;2023-09-12T16:32:36;8.52;;;5.00;;
47796;SDS011;33558;50.922;14.068;2023-09-12T16:35:04;12.63;;;5.75;;
47796;SDS011;33558;50.922;14.068;2023-09-12T16:37:31;8.65;;;5.45;;
47796;SDS011;33558;50.922;14.068;2023-09-12T16:39:58;8.93;;;5.93;;
47796;SDS011;33558;50.922;14.068;2023-09-12T16:42:26;10.60;;;6.45;;
47796;SDS011;33558;50.922;14.068;2023-09-12T16:44:57;9.45;;;5.93;;
47796;SDS011;33558;50.922;14.068;2023-09-12T16:47:24;14.32;;;5.38;;
47796;SDS011;33558;50.922;14.068;2023-09-12T16:49:52;10.00;;;5.90;;
47796;SDS011;33558;50.922;14.068;2023-09-12T16:52:18;12.63;;;6.95;;
47796;SDS011;33558;50.922;14.068;2023-09-12T16:54:45;10.05;;;6.10;;
47796;SDS011;33558;50.922;14.068;2023-09-12T16:57:12;10.82;;;6.00;;
47796;SDS011;33558;50.922;14.068;2023-09-12T16:59:39;9.00;;;6.20;;
47796;SDS011;33558;50.922;14.068;2023-09-12T17:02:10;7.60;;;5.90;;
